Terminal Aerodrome Forecast
Issued by NWS

Home | Current Version | Previous Version | Text Only | Print | Product List | Glossary On
Versions: 1 2 3 4 5 6 7 8 9 10 11 12 13 14 15 16 17 18
000
FTUS42 KTBW 282000 AAA
TAFLAL
TAF AMD
KLAL 282055Z 2821/0118 08006KT 6SM -RA BKN010 OVC025
      TEMPO 2821/2823 2SM SHRA BKN009 OVC025
     FM010100 05011KT 6SM BR BKN020
     FM010500 07005KT 3SM BR BKN010
     FM011300 09006KT P6SM SCT005 BKN035 BKN100=

USA.gov is the U.S. government's official web portal to all federal, state and local government web resources and services.